createdAt,value
2022-11-24T00:01:31.232Z,25.73
2022-11-24T00:04:03.814Z,28.75
2022-11-24T00:06:34.071Z,27.67
2022-11-24T00:09:02.759Z,27.80
2022-11-24T00:11:35.092Z,26.05
2022-11-24T00:14:04.581Z,25.23
2022-11-24T00:16:36.534Z,27.15
2022-11-24T00:19:14.588Z,27.23
2022-11-24T00:21:44.325Z,25.88
2022-11-24T00:24:12.588Z,27.08
2022-11-24T00:26:39.824Z,26.40
2022-11-24T00:29:08.076Z,25.85
2022-11-24T00:31:41.953Z,26.95
2022-11-24T00:34:14.554Z,27.15
2022-11-24T00:36:42.864Z,26.27
2022-11-24T00:39:15.517Z,24.83
2022-11-24T00:41:43.615Z,25.33
2022-11-24T00:44:11.064Z,25.17
2022-11-24T00:46:38.618Z,25.05
2022-11-24T00:49:06.218Z,24.05
2022-11-24T00:51:33.447Z,24.63
2022-11-24T00:54:02.065Z,24.27
2022-11-24T00:56:30.434Z,24.05
2022-11-24T00:58:58.004Z,24.42
2022-11-24T01:01:28.931Z,23.60
2022-11-24T01:03:56.522Z,25.70
2022-11-24T01:06:26.617Z,25.48
2022-11-24T01:08:54.425Z,26.17
2022-11-24T01:11:55.239Z,25.35
2022-11-24T01:14:25.134Z,26.48
2022-11-24T01:16:53.117Z,26.58
2022-11-24T01:19:20.797Z,25.48
2022-11-24T01:21:48.678Z,26.20
2022-11-24T01:24:16.655Z,24.27
2022-11-24T01:26:43.840Z,25.77
2022-11-24T01:29:12.245Z,25.08
2022-11-24T01:31:39.725Z,24.20
2022-11-24T01:34:07.236Z,25.23
2022-11-24T01:36:34.613Z,24.20
2022-11-24T01:39:01.947Z,23.25
2022-11-24T01:41:29.204Z,23.73
2022-11-24T01:43:57.400Z,20.67
2022-11-24T01:46:30.689Z,20.77
2022-11-24T01:49:21.827Z,20.88
2022-11-24T01:52:40.928Z,18.95
2022-11-24T01:55:18.470Z,19.60
2022-11-24T01:58:18.708Z,19.63
2022-11-24T02:00:47.052Z,18.15
2022-11-24T02:03:20.861Z,18.25
2022-11-24T02:06:13.428Z,17.15
2022-11-24T02:09:11.360Z,18.58
2022-11-24T02:11:40.637Z,17.80
2022-11-24T02:14:13.060Z,19.17
2022-11-24T02:16:43.088Z,19.85
2022-11-24T02:19:41.208Z,17.77
2022-11-24T02:22:54.701Z,19.17
2022-11-24T02:26:26.793Z,18.85
2022-11-24T02:28:54.005Z,18.77
2022-11-24T02:31:21.343Z,18.45
2022-11-24T02:33:50.924Z,18.17
2022-11-24T02:36:18.224Z,18.35
2022-11-24T02:38:45.377Z,19.42
2022-11-24T02:41:18.250Z,19.08
2022-11-24T02:43:59.481Z,17.58
2022-11-24T02:46:26.656Z,19.10
2022-11-24T02:48:53.859Z,18.33
2022-11-24T02:51:21.184Z,19.55
2022-11-24T02:53:48.424Z,18.58
2022-11-24T02:56:15.747Z,19.00
2022-11-24T02:58:43.188Z,19.20
2022-11-24T03:01:10.467Z,20.88
2022-11-24T03:04:18.213Z,19.95
2022-11-24T03:06:45.338Z,19.63
2022-11-24T03:09:12.537Z,21.00
2022-11-24T03:11:39.991Z,20.25
2022-11-24T03:14:07.828Z,19.85
2022-11-24T03:16:35.133Z,20.50
2022-11-24T03:19:03.018Z,20.73
2022-11-24T03:21:30.867Z,19.50
2022-11-24T03:23:58.156Z,20.25
2022-11-24T03:26:25.937Z,18.75
2022-11-24T03:28:57.160Z,20.08
2022-11-24T03:31:25.149Z,20.75
2022-11-24T03:33:52.435Z,20.85
2022-11-24T03:36:19.773Z,20.23
2022-11-24T03:38:47.007Z,18.27
2022-11-24T03:41:14.249Z,18.67
2022-11-24T03:43:44.051Z,21.25
2022-11-24T03:46:12.708Z,19.17
2022-11-24T03:48:40.135Z,18.63
2022-11-24T03:51:07.829Z,17.27
2022-11-24T03:53:35.126Z,17.65
2022-11-24T03:56:03.137Z,17.40
2022-11-24T03:58:30.916Z,16.45
2022-11-24T04:00:58.195Z,16.05
2022-11-24T04:03:26.196Z,16.48
2022-11-24T04:05:53.607Z,17.23
2022-11-24T04:08:21.087Z,17.67
2022-11-24T04:10:55.039Z,16.50
2022-11-24T04:13:25.602Z,16.30
2022-11-24T04:15:53.628Z,15.77
2022-11-24T04:18:21.312Z,16.23
2022-11-24T04:20:52.251Z,16.98
2022-11-24T04:23:19.849Z,16.10
2022-11-24T04:25:47.158Z,17.33
2022-11-24T04:28:14.365Z,17.80
2022-11-24T04:30:44.687Z,17.05
2022-11-24T04:33:12.818Z,16.13
2022-11-24T04:35:40.013Z,14.88
2022-11-24T04:38:07.145Z,15.30
2022-11-24T04:40:34.287Z,14.48
2022-11-24T04:43:01.705Z,14.40
2022-11-24T04:45:28.905Z,14.98
2022-11-24T04:47:56.289Z,14.60
2022-11-24T04:50:23.660Z,14.40
2022-11-24T04:52:50.887Z,15.13
2022-11-24T04:55:18.501Z,14.20
2022-11-24T04:57:45.691Z,15.98
2022-11-24T05:00:14.106Z,16.02
2022-11-24T05:02:41.208Z,15.63
2022-11-24T05:05:09.013Z,15.27
2022-11-24T05:07:36.762Z,14.60
2022-11-24T05:10:23.142Z,15.18
2022-11-24T05:12:59.342Z,15.23
2022-11-24T05:15:27.010Z,15.70
2022-11-24T05:17:55.558Z,17.00
2022-11-24T05:20:23.411Z,16.05
2022-11-24T05:22:51.591Z,16.08
2022-11-24T05:25:18.922Z,15.95
2022-11-24T05:27:46.141Z,16.50
2022-11-24T05:30:13.959Z,15.27
2022-11-24T05:32:41.204Z,16.95
2022-11-24T05:35:09.742Z,15.60
2022-11-24T05:37:37.991Z,16.63
2022-11-24T05:40:06.934Z,15.38
2022-11-24T05:42:46.156Z,21.25
2022-11-24T05:45:18.325Z,24.75
2022-11-24T05:47:46.685Z,26.42
2022-11-24T05:50:18.321Z,25.05
2022-11-24T05:52:46.399Z,22.27
2022-11-24T05:55:15.046Z,22.08
2022-11-24T05:57:42.781Z,20.85
2022-11-24T06:00:11.689Z,21.73
2022-11-24T06:02:42.136Z,18.80
2022-11-24T06:05:09.547Z,17.77
2022-11-24T06:07:36.882Z,15.55
2022-11-24T06:10:05.514Z,15.25
2022-11-24T06:12:33.031Z,15.95
2022-11-24T06:15:00.247Z,15.80
2022-11-24T06:17:27.910Z,14.68
2022-11-24T06:19:55.179Z,15.27
2022-11-24T06:22:22.861Z,14.38
2022-11-24T06:24:51.098Z,14.88
2022-11-24T06:27:19.177Z,14.18
2022-11-24T06:29:46.803Z,14.43
2022-11-24T06:32:14.008Z,13.00
2022-11-24T06:34:41.257Z,14.38
2022-11-24T06:37:08.837Z,14.52
2022-11-24T06:39:35.951Z,13.77
2022-11-24T06:42:03.778Z,13.38
2022-11-24T06:44:31.082Z,14.63
2022-11-24T06:46:58.452Z,12.48
2022-11-24T06:49:25.692Z,13.75
2022-11-24T06:51:55.367Z,13.70
2022-11-24T06:54:22.565Z,13.90
2022-11-24T06:56:49.837Z,13.85
2022-11-24T06:59:20.358Z,14.07
2022-11-24T07:01:47.956Z,13.93
2022-11-24T07:04:16.010Z,13.13
2022-11-24T07:06:44.136Z,13.77
2022-11-24T07:09:13.560Z,14.25
2022-11-24T07:11:42.179Z,14.68
2022-11-24T07:14:10.479Z,13.93
2022-11-24T07:16:39.104Z,13.13
2022-11-24T07:19:06.212Z,12.48
2022-11-24T07:21:33.359Z,12.13
2022-11-24T07:24:00.537Z,14.48
2022-11-24T07:26:27.803Z,14.65
2022-11-24T07:28:55.115Z,17.17
2022-11-24T07:31:26.417Z,17.27
2022-11-24T07:33:55.476Z,13.15
2022-11-24T07:36:23.752Z,13.68
2022-11-24T07:38:51.230Z,13.27
2022-11-24T07:41:20.239Z,13.15
2022-11-24T07:43:49.131Z,13.77
2022-11-24T07:46:20.146Z,13.75
2022-11-24T07:48:47.908Z,14.10
2022-11-24T07:51:16.046Z,12.80
2022-11-24T07:53:43.968Z,14.65
2022-11-24T07:56:12.516Z,12.82
2022-11-24T07:58:39.825Z,13.07
2022-11-24T08:01:17.026Z,12.75
2022-11-24T08:03:45.933Z,12.07
2022-11-24T08:06:36.260Z,12.23
2022-11-24T08:09:01.520Z,10.77
2022-11-24T08:11:31.298Z,11.82
2022-11-24T08:13:58.603Z,12.57
2022-11-24T08:16:25.912Z,11.85
2022-11-24T08:18:55.580Z,11.80
2022-11-24T08:21:23.913Z,11.52
2022-11-24T08:23:56.316Z,11.05
2022-11-24T08:26:24.888Z,11.15
2022-11-24T08:28:58.502Z,10.63
2022-11-24T08:31:33.438Z,11.23
2022-11-24T08:34:03.814Z,10.57
2022-11-24T08:36:32.457Z,10.65
2022-11-24T08:39:01.058Z,11.52
2022-11-24T08:41:29.862Z,10.98
2022-11-24T08:43:57.368Z,10.95
2022-11-24T08:46:24.695Z,9.52
2022-11-24T08:48:54.968Z,9.55
2022-11-24T08:51:26.108Z,10.38
2022-11-24T08:54:01.509Z,9.75
2022-11-24T08:56:32.506Z,9.65
2022-11-24T08:59:00.479Z,9.25
2022-11-24T09:01:29.193Z,8.65
2022-11-24T09:03:56.882Z,7.90
2022-11-24T09:06:32.111Z,8.52
2022-11-24T09:09:00.017Z,8.25
2022-11-24T09:11:28.470Z,8.82
2022-11-24T09:13:55.898Z,40.47
2022-11-24T09:16:27.748Z,7.05
2022-11-24T09:19:06.527Z,6.95
2022-11-24T09:21:38.571Z,6.63
2022-11-24T09:24:07.531Z,6.57
2022-11-24T09:26:39.783Z,7.30
2022-11-24T09:31:39.485Z,6.45
2022-11-24T09:34:12.766Z,7.60
2022-11-24T09:36:40.402Z,6.82
2022-11-24T09:39:07.764Z,6.53
2022-11-24T09:42:25.520Z,6.13
2022-11-24T09:45:42.000Z,6.25
2022-11-24T09:48:32.596Z,5.75
2022-11-24T09:51:04.507Z,5.78
2022-11-24T09:53:56.108Z,5.25
2022-11-24T09:56:28.392Z,5.40
2022-11-24T09:59:16.202Z,5.47
2022-11-24T10:01:47.138Z,6.53
2022-11-24T10:04:41.868Z,5.80
2022-11-24T10:07:12.131Z,6.30
2022-11-24T10:09:56.740Z,5.65
2022-11-24T10:12:43.381Z,5.50
2022-11-24T10:15:43.793Z,5.45
2022-11-24T10:18:57.041Z,5.03
2022-11-24T10:22:13.956Z,5.50
2022-11-24T10:25:25.905Z,5.95
2022-11-24T10:28:05.588Z,5.18
2022-11-24T10:30:32.859Z,5.38
2022-11-24T10:33:28.829Z,4.97
2022-11-24T10:36:12.310Z,5.72
2022-11-24T10:38:52.906Z,5.95
2022-11-24T10:41:42.868Z,5.65
2022-11-24T10:44:15.382Z,5.00
2022-11-24T10:46:42.970Z,4.68
2022-11-24T10:49:23.512Z,4.32
2022-11-24T10:52:12.828Z,4.85
2022-11-24T10:54:58.639Z,4.45
2022-11-24T10:57:39.612Z,4.80
2022-11-24T11:00:18.871Z,4.63
2022-11-24T11:02:49.392Z,4.20
2022-11-24T11:05:31.791Z,5.15
2022-11-24T11:08:23.464Z,5.13
2022-11-24T11:11:29.045Z,5.25
2022-11-24T11:14:06.215Z,4.93
2022-11-24T11:16:42.573Z,4.00
2022-11-24T11:19:48.988Z,4.43
2022-11-24T11:25:10.372Z,4.13
2022-11-24T11:27:40.049Z,4.03
2022-11-24T11:36:15.031Z,3.90
2022-11-24T11:38:44.168Z,4.07
2022-11-24T11:41:25.905Z,4.20
2022-11-24T11:44:15.050Z,4.88
2022-11-24T11:46:43.838Z,4.28
2022-11-24T11:49:13.488Z,4.15
2022-11-24T11:52:42.361Z,4.68
2022-11-24T11:55:46.550Z,4.63
2022-11-24T11:59:13.976Z,5.97
2022-11-24T12:02:12.472Z,5.22
2022-11-24T12:05:04.515Z,5.80
2022-11-24T12:07:45.494Z,5.63
2022-11-24T12:10:43.349Z,4.95
2022-11-24T12:13:36.893Z,5.13
2022-11-24T12:16:56.027Z,6.25
2022-11-24T12:19:59.696Z,5.97
2022-11-24T12:22:58.700Z,5.75
2022-11-24T12:25:53.759Z,6.03
2022-11-24T12:28:37.948Z,5.82
2022-11-24T12:31:51.271Z,7.20
2022-11-24T12:34:54.280Z,5.82
2022-11-24T12:37:30.272Z,5.97
2022-11-24T12:40:32.288Z,6.25
2022-11-24T12:43:38.857Z,6.00
2022-11-24T12:46:59.422Z,5.60
2022-11-24T12:50:08.971Z,5.70
2022-11-24T12:52:58.986Z,5.50
2022-11-24T12:55:29.252Z,5.60
2022-11-24T12:58:25.928Z,4.60
2022-11-24T13:01:31.741Z,5.28
2022-11-24T13:04:12.280Z,5.00
2022-11-24T13:06:59.635Z,4.68
2022-11-24T13:09:26.877Z,5.97
2022-11-24T13:12:11.636Z,5.18
2022-11-24T13:14:43.685Z,5.15
2022-11-24T13:17:43.527Z,5.40
2022-11-24T13:20:32.060Z,5.53
2022-11-24T13:23:03.479Z,4.75
2022-11-24T13:25:35.780Z,5.03
2022-11-24T13:28:06.756Z,5.05
2022-11-24T13:30:33.886Z,4.57
2022-11-24T13:33:16.140Z,5.15
2022-11-24T13:36:02.544Z,4.35
2022-11-24T13:38:54.071Z,4.38
2022-11-24T13:41:33.472Z,4.60
2022-11-24T13:44:15.744Z,4.57
2022-11-24T13:47:06.775Z,4.50
2022-11-24T13:49:43.672Z,4.78
2022-11-24T13:53:07.799Z,4.80
2022-11-24T13:55:40.916Z,5.50
2022-11-24T13:58:14.222Z,5.28
2022-11-24T14:01:28.266Z,5.15
2022-11-24T14:04:31.943Z,4.90
2022-11-24T14:07:09.565Z,4.60
2022-11-24T14:09:51.717Z,4.88
2022-11-24T14:12:26.634Z,4.30
2022-11-24T14:15:19.776Z,4.30
2022-11-24T14:17:46.917Z,5.43
2022-11-24T14:20:28.203Z,5.20
2022-11-24T14:22:55.537Z,4.65
2022-11-24T14:25:31.687Z,4.30
2022-11-24T14:28:00.604Z,4.82
2022-11-24T14:30:27.982Z,4.82
2022-11-24T14:32:57.489Z,4.60
2022-11-24T14:35:35.444Z,4.85
2022-11-24T14:38:06.083Z,4.90
2022-11-24T14:40:47.018Z,5.22
2022-11-24T14:43:31.422Z,5.28
2022-11-24T14:46:06.008Z,5.32
2022-11-24T14:48:39.091Z,5.50
2022-11-24T14:51:31.649Z,5.40
2022-11-24T14:54:04.212Z,4.70
2022-11-24T14:56:39.764Z,7.07
2022-11-24T14:59:26.535Z,5.63
2022-11-24T15:01:54.416Z,4.95
2022-11-24T15:04:54.578Z,5.78
2022-11-24T15:07:27.642Z,5.57
2022-11-24T15:10:04.259Z,5.47
2022-11-24T15:12:41.986Z,5.43
2022-11-24T15:15:15.090Z,6.18
2022-11-24T15:17:59.910Z,6.82
2022-11-24T15:20:45.803Z,6.88
2022-11-24T15:23:33.754Z,6.00
2022-11-24T15:26:03.970Z,5.72
2022-11-24T15:28:31.920Z,5.82
2022-11-24T15:31:12.444Z,5.57
2022-11-24T15:33:42.136Z,6.07
2022-11-24T15:36:11.472Z,8.10
2022-11-24T15:38:38.707Z,7.70
2022-11-24T15:41:29.057Z,6.93
2022-11-24T15:43:59.287Z,8.18
2022-11-24T15:46:29.331Z,6.45
2022-11-24T15:48:57.197Z,6.47
2022-11-24T15:51:26.780Z,6.88
2022-11-24T15:54:00.769Z,7.50
2022-11-24T15:56:35.230Z,7.63
2022-11-24T15:59:03.835Z,7.75
2022-11-24T16:01:33.763Z,8.07
2022-11-24T16:04:02.562Z,8.52
2022-11-24T16:06:30.334Z,9.00
2022-11-24T16:08:59.019Z,10.40
2022-11-24T16:11:26.504Z,9.05
2022-11-24T16:13:54.491Z,10.30
2022-11-24T16:16:24.660Z,10.07
2022-11-24T16:18:52.313Z,10.93
2022-11-24T16:21:19.481Z,10.07
2022-11-24T16:23:47.737Z,11.95
2022-11-24T16:26:15.020Z,10.63
2022-11-24T16:28:42.769Z,11.63
2022-11-24T16:31:10.122Z,10.95
2022-11-24T16:33:40.589Z,12.05
2022-11-24T16:36:08.781Z,11.65
2022-11-24T16:38:35.993Z,11.82
2022-11-24T16:41:03.227Z,11.52
2022-11-24T16:43:30.687Z,12.93
2022-11-24T16:46:23.297Z,14.88
2022-11-24T16:48:54.894Z,12.88
2022-11-24T16:51:24.349Z,12.38
2022-11-24T16:54:00.931Z,13.05
2022-11-24T16:56:30.449Z,13.18
2022-11-24T16:58:57.621Z,14.98
2022-11-24T17:01:25.922Z,15.82
2022-11-24T17:03:53.356Z,20.25
2022-11-24T17:06:20.611Z,34.95
2022-11-24T17:08:48.325Z,24.48
2022-11-24T17:11:26.402Z,20.23
2022-11-24T17:13:54.015Z,21.50
2022-11-24T17:16:24.414Z,23.63
2022-11-24T17:18:52.629Z,27.10
2022-11-24T17:21:27.334Z,32.95
2022-11-24T17:26:33.673Z,32.50
2022-11-24T17:29:01.067Z,29.38
2022-11-24T17:31:35.821Z,30.85
2022-11-24T17:34:05.896Z,28.43
2022-11-24T17:36:35.390Z,29.20
2022-11-24T17:39:05.288Z,31.23
2022-11-24T17:41:33.642Z,27.70
2022-11-24T17:44:00.840Z,26.38
2022-11-24T17:46:30.754Z,24.75
2022-11-24T17:48:58.285Z,22.30
2022-11-24T17:51:27.078Z,20.17
2022-11-24T17:53:57.252Z,21.75
2022-11-24T17:56:28.097Z,18.33
2022-11-24T17:58:59.488Z,21.45
2022-11-24T18:01:30.074Z,19.65
2022-11-24T18:03:58.539Z,19.30
2022-11-24T18:06:28.464Z,17.80
2022-11-24T18:08:59.098Z,18.90
2022-11-24T18:11:32.194Z,18.98
2022-11-24T18:14:04.181Z,18.65
2022-11-24T18:16:34.563Z,20.00
2022-11-24T18:19:09.962Z,19.08
2022-11-24T18:21:43.515Z,18.45
2022-11-24T18:24:12.043Z,19.48
2022-11-24T18:26:41.860Z,17.50
2022-11-24T18:29:11.461Z,18.80
2022-11-24T18:31:39.874Z,19.02
2022-11-24T18:34:07.408Z,19.17
2022-11-24T18:36:35.741Z,22.67
2022-11-24T18:39:08.839Z,19.13
2022-11-24T18:41:36.504Z,19.27
2022-11-24T18:44:07.636Z,22.33
2022-11-24T18:46:35.298Z,20.63
2022-11-24T18:49:02.440Z,20.48
2022-11-24T18:51:29.958Z,19.52
2022-11-24T18:54:02.015Z,19.85
2022-11-24T18:56:29.521Z,18.80
2022-11-24T18:58:57.190Z,20.27
2022-11-24T19:01:28.833Z,20.90
2022-11-24T19:04:00.363Z,22.00
2022-11-24T19:06:36.023Z,21.92
2022-11-24T19:09:13.334Z,27.70
2022-11-24T19:11:45.374Z,26.70
2022-11-24T19:14:17.612Z,29.10
2022-11-24T19:16:47.513Z,31.50
2022-11-24T19:19:16.390Z,33.17
2022-11-24T19:21:44.159Z,21.83
2022-11-24T19:24:13.177Z,19.58
2022-11-24T19:26:40.503Z,19.92
2022-11-24T19:29:08.596Z,20.90
2022-11-24T19:31:38.203Z,20.35
2022-11-24T19:34:07.877Z,20.00
2022-11-24T19:36:35.843Z,19.90
2022-11-24T19:39:05.012Z,21.02
2022-11-24T19:41:33.781Z,23.77
2022-11-24T19:44:01.128Z,21.83
2022-11-24T19:46:30.060Z,21.45
2022-11-24T19:49:01.922Z,20.42
2022-11-24T19:51:36.226Z,21.67
2022-11-24T19:54:08.039Z,23.02
2022-11-24T19:56:37.098Z,23.60
2022-11-24T19:59:06.552Z,27.27
2022-11-24T20:01:37.836Z,28.98
2022-11-24T20:04:11.563Z,30.38
2022-11-24T20:06:43.210Z,29.88
2022-11-24T20:09:16.815Z,27.15
2022-11-24T20:11:44.161Z,27.63
2022-11-24T20:14:14.714Z,30.27
2022-11-24T20:16:42.423Z,29.13
2022-11-24T20:19:16.493Z,28.17
2022-11-24T20:21:49.962Z,30.25
2022-11-24T20:24:22.050Z,31.73
2022-11-24T20:26:56.284Z,33.28
2022-11-24T20:29:23.971Z,30.85
2022-11-24T20:31:55.089Z,30.63
2022-11-24T20:34:23.775Z,29.65
2022-11-24T20:36:52.773Z,34.00
2022-11-24T20:39:27.807Z,32.92
2022-11-24T20:41:56.170Z,32.13
2022-11-24T20:44:26.602Z,30.63
2022-11-24T20:46:58.019Z,31.58
2022-11-24T20:49:26.155Z,36.33
2022-11-24T20:51:57.319Z,34.20
2022-11-24T20:54:25.141Z,62.22
2022-11-24T20:56:52.341Z,74.22
2022-11-24T20:59:24.964Z,68.93
2022-11-24T21:01:55.159Z,65.78
2022-11-24T21:04:25.936Z,64.78
2022-11-24T21:06:53.394Z,68.55
2022-11-24T21:09:20.821Z,60.45
2022-11-24T21:11:48.851Z,60.25
2022-11-24T21:14:16.338Z,59.58
2022-11-24T21:16:44.683Z,47.65
2022-11-24T21:19:14.888Z,46.33
2022-11-24T21:21:42.617Z,49.00
2022-11-24T21:24:18.043Z,53.03
2022-11-24T21:26:50.367Z,56.25
2022-11-24T21:29:21.863Z,62.42
2022-11-24T21:31:49.338Z,61.55
2022-11-24T21:34:18.895Z,42.50
2022-11-24T21:36:46.960Z,37.00
2022-11-24T21:39:15.271Z,33.22
2022-11-24T21:41:43.161Z,40.05
2022-11-24T21:44:14.089Z,33.50
2022-11-24T21:46:48.175Z,36.53
2022-11-24T21:49:19.679Z,32.60
2022-11-24T21:51:47.488Z,27.73
2022-11-24T21:54:14.607Z,23.98
2022-11-24T21:56:41.875Z,23.73
2022-11-24T21:59:09.495Z,23.27
2022-11-24T22:01:36.803Z,22.40
2022-11-24T22:04:04.411Z,21.83
2022-11-24T22:06:33.230Z,20.35
2022-11-24T22:09:00.489Z,19.42
2022-11-24T22:11:27.631Z,19.38
2022-11-24T22:13:54.905Z,19.25
2022-11-24T22:16:24.718Z,17.23
2022-11-24T22:18:52.797Z,16.92
2022-11-24T22:21:24.138Z,17.27
2022-11-24T22:23:52.679Z,17.10
2022-11-24T22:26:23.681Z,16.83
2022-11-24T22:28:51.949Z,16.23
2022-11-24T22:31:31.758Z,17.27
2022-11-24T22:34:00.672Z,21.40
2022-11-24T22:36:30.169Z,16.88
2022-11-24T22:39:04.567Z,17.25
2022-11-24T22:41:34.866Z,18.15
2022-11-24T22:44:02.696Z,17.80
2022-11-24T22:46:32.059Z,17.65
2022-11-24T22:49:01.519Z,16.33
2022-11-24T22:51:33.600Z,18.08
2022-11-24T22:54:04.420Z,17.17
2022-11-24T22:56:34.795Z,16.15
2022-11-24T22:59:04.418Z,15.00
2022-11-24T23:01:35.990Z,16.05
2022-11-24T23:04:03.912Z,16.23
2022-11-24T23:06:33.647Z,15.60
2022-11-24T23:09:04.039Z,15.52
2022-11-24T23:11:38.508Z,15.70
2022-11-24T23:14:15.396Z,16.13
2022-11-24T23:16:43.754Z,15.65
2022-11-24T23:19:11.069Z,15.88
2022-11-24T23:21:38.969Z,15.23
2022-11-24T23:24:08.176Z,16.45
2022-11-24T23:26:40.770Z,15.35
2022-11-24T23:29:09.988Z,14.65
2022-11-24T23:31:39.858Z,15.43
2022-11-24T23:34:07.517Z,16.05
2022-11-24T23:36:34.901Z,14.50
2022-11-24T23:39:10.712Z,14.52
2022-11-24T23:41:38.393Z,14.65
2022-11-24T23:44:07.060Z,14.63
2022-11-24T23:46:34.646Z,14.80
2022-11-24T23:49:01.894Z,13.90
2022-11-24T23:51:32.659Z,13.38
2022-11-24T23:54:00.571Z,15.02
2022-11-24T23:56:32.686Z,15.02
2022-11-24T23:59:03.028Z,14.77
